Westover, Maryland
Current Conditions -  °F | °C
As of 1:54 PM on Monday 20 Oct 2014 (Local Time) from KSBY Reporting Station
Clear Clear  
Wind Chill: 19°   Ceiling: Unl
Heat Index: 19°   Visibility: 10mi
Dew Point:   Wind: 13mph
Humidity: 45%   Direction: 210°SSW
Pressure: 30.05"   Gusts: 21mph
Location:  38.12°N, 75.71°W
Report Text: KSBY 201754Z 21011G18KT 10SM CLR 19/07 A3005 RMK AO2 SLP177 T01890067 10194 20028 58036
Loading
Personal Weather Stations






























Interactive Weather Map
Tropical Storm Tracking
New forecast layout! Learn more

10-Day Weather Forecast

Advertisements
Track Severe Weather on mobile